createdAt,value
2022-08-10T00:01:54.695Z,3.00
2022-08-10T00:04:23.059Z,2.92
2022-08-10T00:06:54.236Z,3.20
2022-08-10T00:09:22.920Z,3.10
2022-08-10T00:11:49.712Z,3.13
2022-08-10T00:14:19.236Z,3.10
2022-08-10T00:16:45.977Z,3.10
2022-08-10T00:19:12.474Z,3.08
2022-08-10T00:21:39.030Z,3.08
2022-08-10T00:24:05.657Z,3.10
2022-08-10T00:27:51.950Z,2.85
2022-08-10T00:29:19.027Z,2.97
2022-08-10T00:31:57.772Z,3.00
2022-08-10T00:34:27.014Z,3.08
2022-08-10T00:36:53.529Z,3.22
2022-08-10T00:39:20.132Z,3.15
2022-08-10T00:41:47.343Z,3.15
2022-08-10T00:44:38.392Z,3.10
2022-08-10T00:47:06.048Z,3.00
2022-08-10T00:49:32.727Z,3.42
2022-08-10T00:51:59.838Z,3.20
2022-08-10T00:54:26.558Z,3.30
2022-08-10T00:57:17.794Z,3.05
2022-08-10T00:59:58.745Z,3.00
2022-08-10T01:02:27.538Z,3.35
2022-08-10T01:05:00.341Z,3.13
2022-08-10T01:07:40.213Z,3.30
2022-08-10T01:10:15.723Z,3.15
2022-08-10T01:13:04.581Z,3.38
2022-08-10T01:15:37.329Z,3.53
2022-08-10T01:18:09.372Z,3.35
2022-08-10T01:20:48.712Z,3.20
2022-08-10T01:23:44.054Z,3.47
2022-08-10T01:26:31.253Z,3.40
2022-08-10T01:29:48.013Z,3.28
2022-08-10T01:32:17.441Z,3.50
2022-08-10T01:34:50.644Z,3.10
2022-08-10T01:37:24.210Z,3.40
2022-08-10T01:40:02.330Z,3.08
2022-08-10T01:42:34.785Z,3.53
2022-08-10T01:45:04.940Z,3.30
2022-08-10T01:47:56.137Z,3.38
2022-08-10T01:50:25.646Z,3.40
2022-08-10T01:52:58.454Z,3.55
2022-08-10T01:55:26.731Z,3.80
2022-08-10T01:57:54.158Z,3.38
2022-08-10T02:00:21.134Z,3.70
2022-08-10T02:02:50.546Z,3.55
2022-08-10T02:05:21.495Z,3.60
2022-08-10T02:07:49.623Z,3.75
2022-08-10T02:10:19.367Z,3.80
2022-08-10T02:12:46.983Z,3.50
2022-08-10T02:15:17.735Z,3.47
2022-08-10T02:18:00.595Z,3.45
2022-08-10T02:20:36.236Z,3.40
2022-08-10T02:23:08.698Z,3.40
2022-08-10T02:25:42.211Z,3.42
2022-08-10T02:28:27.512Z,3.45
2022-08-10T02:31:01.043Z,3.80
2022-08-10T02:33:28.543Z,3.58
2022-08-10T02:35:56.185Z,3.50
2022-08-10T02:38:58.845Z,3.80
2022-08-10T02:45:12.911Z,3.70
2022-08-10T02:45:20.367Z,3.92
2022-08-10T02:47:28.175Z,3.80
2022-08-10T02:50:12.586Z,3.40
2022-08-10T02:52:55.125Z,3.70
2022-08-10T02:55:27.011Z,3.38
2022-08-10T02:58:12.745Z,3.90
2022-08-10T03:00:48.248Z,3.55
2022-08-10T03:03:20.437Z,3.70
2022-08-10T03:05:50.944Z,3.70
2022-08-10T03:08:21.304Z,3.75
2022-08-10T03:10:49.535Z,3.72
2022-08-10T03:13:18.604Z,3.88
2022-08-10T03:15:46.069Z,3.58
2022-08-10T03:18:13.592Z,3.60
2022-08-10T03:20:42.804Z,3.40
2022-08-10T03:23:21.236Z,3.42
2022-08-10T03:25:53.211Z,3.50
2022-08-10T03:28:26.908Z,3.50
2022-08-10T03:30:54.492Z,3.55
2022-08-10T03:33:22.719Z,3.70
2022-08-10T03:36:39.972Z,3.28
2022-08-10T03:38:40.508Z,3.60
2022-08-10T03:41:11.583Z,3.60
2022-08-10T03:43:45.273Z,3.33
2022-08-10T03:46:13.820Z,3.53
2022-08-10T03:48:48.274Z,3.50
2022-08-10T03:51:16.983Z,3.60
2022-08-10T03:54:04.779Z,3.65
2022-08-10T03:56:33.027Z,3.40
2022-08-10T03:59:00.629Z,3.42
2022-08-10T04:02:43.351Z,3.30
2022-08-10T04:04:17.800Z,3.65
2022-08-10T04:06:51.511Z,3.30
2022-08-10T04:09:23.283Z,3.40
2022-08-10T04:11:49.929Z,3.33
2022-08-10T04:14:38.088Z,3.30
2022-08-10T04:17:03.000Z,3.25
2022-08-10T04:19:37.886Z,3.42
2022-08-10T04:22:10.292Z,3.17
2022-08-10T04:24:38.825Z,3.50
2022-08-10T04:27:05.562Z,3.30
2022-08-10T04:29:32.725Z,3.50
2022-08-10T04:32:01.197Z,3.40
2022-08-10T04:34:31.860Z,3.10
2022-08-10T04:37:04.343Z,3.58
2022-08-10T04:39:33.810Z,3.50
2022-08-10T04:42:00.535Z,3.55
2022-08-10T04:44:29.991Z,3.53
2022-08-10T04:46:59.248Z,3.33
2022-08-10T04:49:55.191Z,3.50
2022-08-10T04:52:13.878Z,3.50
2022-08-10T04:54:43.135Z,3.17
2022-08-10T04:57:09.770Z,3.50
2022-08-10T04:59:36.336Z,3.30
2022-08-10T05:02:27.860Z,3.40
2022-08-10T05:04:49.713Z,3.55
2022-08-10T05:07:18.499Z,3.60
2022-08-10T05:10:02.781Z,3.55
2022-08-10T05:12:38.331Z,3.65
2022-08-10T05:15:07.515Z,3.50
2022-08-10T05:17:35.813Z,3.78
2022-08-10T05:20:06.655Z,3.60
2022-08-10T05:22:36.101Z,3.38
2022-08-10T05:25:03.885Z,3.28
2022-08-10T05:27:30.423Z,3.20
2022-08-10T05:30:02.340Z,3.10
2022-08-10T05:32:34.348Z,3.40
2022-08-10T05:35:21.087Z,3.47
2022-08-10T05:38:12.963Z,3.05
2022-08-10T05:40:38.321Z,3.10
2022-08-10T05:43:05.570Z,3.00
2022-08-10T05:45:32.103Z,2.83
2022-08-10T05:48:54.101Z,2.85
2022-08-10T05:50:45.397Z,3.05
2022-08-10T05:53:39.098Z,2.72
2022-08-10T05:55:59.369Z,2.88
2022-08-10T05:58:25.961Z,2.60
2022-08-10T06:00:55.840Z,2.75
2022-08-10T06:03:27.520Z,2.88
2022-08-10T06:05:58.609Z,2.70
2022-08-10T06:08:31.325Z,2.70
2022-08-10T06:12:27.861Z,2.38
2022-08-10T06:14:13.137Z,2.30
2022-08-10T06:16:44.160Z,2.45
2022-08-10T06:19:15.014Z,2.40
2022-08-10T06:22:00.317Z,2.53
2022-08-10T06:24:30.492Z,2.25
2022-08-10T06:26:58.413Z,2.40
2022-08-10T06:29:26.400Z,2.35
2022-08-10T06:31:53.417Z,2.40
2022-08-10T06:34:28.500Z,2.15
2022-08-10T06:36:57.899Z,2.50
2022-08-10T06:39:34.857Z,2.38
2022-08-10T06:42:17.594Z,2.47
2022-08-10T06:44:52.647Z,2.20
2022-08-10T06:47:22.910Z,2.20
2022-08-10T06:49:59.903Z,2.42
2022-08-10T06:52:30.578Z,2.00
2022-08-10T06:55:00.593Z,2.20
2022-08-10T06:57:32.367Z,2.30
2022-08-10T07:00:02.521Z,2.13
2022-08-10T07:02:52.326Z,2.30
2022-08-10T07:05:24.703Z,2.20
2022-08-10T07:07:54.470Z,2.28
2022-08-10T07:10:23.406Z,2.20
2022-08-10T07:12:56.716Z,2.20
2022-08-10T07:15:59.596Z,2.40
2022-08-10T07:18:12.930Z,2.13
2022-08-10T07:20:40.063Z,2.40
2022-08-10T07:23:57.203Z,2.13
2022-08-10T07:26:00.970Z,2.27
2022-08-10T07:28:32.970Z,2.05
2022-08-10T07:30:59.961Z,2.00
2022-08-10T07:33:28.770Z,2.22
2022-08-10T07:35:57.222Z,2.30
2022-08-10T07:38:26.962Z,2.38
2022-08-10T07:40:54.546Z,2.20
2022-08-10T07:43:24.105Z,2.30
2022-08-10T07:45:51.108Z,2.53
2022-08-10T07:48:27.287Z,2.35
2022-08-10T07:50:58.351Z,2.40
2022-08-10T07:53:27.735Z,2.40
2022-08-10T07:56:07.450Z,2.35
2022-08-10T07:58:51.757Z,2.30
2022-08-10T08:01:21.692Z,2.20
2022-08-10T08:04:10.552Z,2.20
2022-08-10T08:06:36.634Z,2.20
2022-08-10T08:09:04.763Z,2.28
2022-08-10T08:11:32.494Z,2.20
2022-08-10T08:14:03.375Z,2.00
2022-08-10T08:16:32.076Z,2.30
2022-08-10T08:19:26.300Z,2.10
2022-08-10T08:24:08.084Z,2.20
2022-08-10T08:24:37.688Z,2.20
2022-08-10T08:27:05.686Z,3.03
2022-08-10T08:29:35.517Z,2.72
2022-08-10T08:32:05.297Z,2.20
2022-08-10T08:34:33.423Z,2.10
2022-08-10T08:37:04.886Z,1.90
2022-08-10T08:39:33.341Z,2.10
2022-08-10T08:42:24.219Z,2.28
2022-08-10T08:45:05.817Z,2.30
2022-08-10T08:48:03.050Z,2.30
2022-08-10T08:50:39.214Z,2.10
2022-08-10T08:54:00.923Z,2.10
2022-08-10T08:56:51.334Z,2.03
2022-08-10T08:59:47.637Z,1.90
2022-08-10T09:02:28.801Z,1.88
2022-08-10T09:05:09.467Z,2.20
2022-08-10T09:08:25.155Z,1.80
2022-08-10T09:11:01.703Z,2.35
2022-08-10T09:14:05.934Z,2.45
2022-08-10T09:16:45.686Z,2.08
2022-08-10T09:19:35.132Z,1.92
2022-08-10T09:22:18.119Z,2.30
2022-08-10T09:24:58.632Z,1.80
2022-08-10T09:27:36.269Z,2.00
2022-08-10T09:30:10.970Z,2.13
2022-08-10T09:36:21.606Z,2.00
2022-08-10T09:39:12.472Z,1.80
2022-08-10T09:42:26.379Z,2.28
2022-08-10T09:45:12.607Z,1.85
2022-08-10T09:48:01.255Z,1.80
2022-08-10T09:51:28.434Z,1.90
2022-08-10T09:54:04.483Z,2.05
2022-08-10T10:00:12.542Z,1.98
2022-08-10T10:03:06.738Z,2.13
2022-08-10T10:05:52.052Z,2.00
2022-08-10T10:08:36.443Z,2.20
2022-08-10T10:11:19.842Z,2.10
2022-08-10T10:14:12.680Z,2.00
2022-08-10T10:17:07.898Z,1.98
2022-08-10T10:20:04.375Z,2.25
2022-08-10T10:22:50.350Z,1.92
2022-08-10T10:25:49.851Z,1.90
2022-08-10T10:29:19.804Z,2.00
2022-08-10T10:31:45.621Z,2.05
2022-08-10T10:34:40.775Z,1.70
2022-08-10T10:37:09.995Z,1.77
2022-08-10T10:39:44.588Z,1.52
2022-08-10T10:42:45.196Z,1.52
2022-08-10T10:45:29.781Z,1.63
2022-08-10T10:48:32.729Z,1.60
2022-08-10T10:51:18.265Z,1.70
2022-08-10T10:54:03.530Z,1.90
2022-08-10T10:56:57.800Z,1.95
2022-08-10T11:00:04.000Z,2.03
2022-08-10T11:02:39.333Z,1.50
2022-08-10T11:05:33.368Z,2.10
2022-08-10T11:08:17.150Z,1.90
2022-08-10T11:10:47.307Z,1.75
2022-08-10T11:14:25.225Z,1.60
2022-08-10T11:16:24.778Z,2.00
2022-08-10T11:19:13.835Z,1.70
2022-08-10T11:22:22.213Z,1.50
2022-08-10T11:24:54.486Z,1.60
2022-08-10T11:27:56.670Z,1.60
2022-08-10T11:30:31.050Z,1.70
2022-08-10T11:33:32.634Z,1.60
2022-08-10T11:36:08.865Z,1.53
2022-08-10T11:39:23.973Z,1.60
2022-08-10T11:42:33.327Z,1.70
2022-08-10T11:45:22.029Z,1.58
2022-08-10T11:47:53.367Z,1.60
2022-08-10T11:50:31.558Z,1.60
2022-08-10T11:53:19.629Z,1.80
2022-08-10T11:55:52.813Z,1.45
2022-08-10T11:58:43.458Z,1.83
2022-08-10T12:01:13.073Z,1.60
2022-08-10T12:03:44.678Z,1.60
2022-08-10T12:06:15.561Z,1.52
2022-08-10T12:10:05.375Z,1.60
2022-08-10T12:11:33.135Z,1.50
2022-08-10T12:14:20.227Z,1.60
2022-08-10T12:16:51.210Z,1.50
2022-08-10T12:19:31.334Z,1.50
2022-08-10T12:22:23.125Z,1.70
2022-08-10T12:24:55.855Z,1.70
2022-08-10T12:27:52.063Z,1.50
2022-08-10T12:30:29.324Z,1.60
2022-08-10T12:33:26.526Z,1.55
2022-08-10T12:36:17.442Z,1.70
2022-08-10T12:38:51.957Z,1.60
2022-08-10T12:41:43.806Z,1.70
2022-08-10T12:44:41.274Z,1.50
2022-08-10T12:47:24.221Z,1.60
2022-08-10T12:50:23.884Z,1.40
2022-08-10T12:53:32.659Z,1.70
2022-08-10T12:56:01.720Z,1.45
2022-08-10T12:58:57.873Z,1.40
2022-08-10T13:01:18.826Z,1.40
2022-08-10T13:04:23.594Z,1.40
2022-08-10T13:06:41.614Z,1.42
2022-08-10T13:09:08.685Z,1.40
2022-08-10T13:12:34.923Z,1.50
2022-08-10T13:14:47.357Z,1.50
2022-08-10T13:17:21.089Z,1.50
2022-08-10T13:19:55.528Z,1.25
2022-08-10T13:22:30.216Z,1.40
2022-08-10T13:25:01.368Z,1.52
2022-08-10T13:28:00.656Z,1.40
2022-08-10T13:30:37.581Z,1.50
2022-08-10T13:35:33.350Z,1.40
2022-08-10T13:38:02.912Z,1.50
2022-08-10T13:40:31.708Z,1.50
2022-08-10T13:43:00.580Z,1.55
2022-08-10T13:45:28.623Z,1.40
2022-08-10T13:48:10.751Z,1.58
2022-08-10T13:50:38.798Z,1.60
2022-08-10T13:53:13.349Z,1.67
2022-08-10T13:55:54.996Z,1.63
2022-08-10T13:58:31.037Z,1.50
2022-08-10T14:00:59.950Z,1.50
2022-08-10T14:03:27.669Z,1.60
2022-08-10T14:05:56.158Z,1.50
2022-08-10T14:08:28.802Z,1.45
2022-08-10T14:11:09.973Z,1.50
2022-08-10T14:16:11.424Z,1.48
2022-08-10T14:18:39.802Z,1.70
2022-08-10T14:21:07.096Z,1.40
2022-08-10T14:23:40.214Z,1.60
2022-08-10T14:28:41.469Z,1.38
2022-08-10T14:31:11.570Z,1.40
2022-08-10T14:33:43.241Z,1.60
2022-08-10T14:36:20.247Z,1.60
2022-08-10T14:38:53.926Z,1.60
2022-08-10T14:42:00.817Z,1.60
2022-08-10T14:44:18.734Z,1.75
2022-08-10T14:46:51.653Z,1.70
2022-08-10T14:49:25.553Z,1.35
2022-08-10T14:51:59.641Z,1.60
2022-08-10T14:54:29.805Z,1.45
2022-08-10T14:57:11.231Z,1.50
2022-08-10T15:00:21.088Z,1.60
2022-08-10T15:02:40.453Z,1.58
2022-08-10T15:05:21.696Z,2.20
2022-08-10T15:07:58.884Z,1.60
2022-08-10T15:10:28.083Z,1.65
2022-08-10T15:12:58.714Z,1.70
2022-08-10T15:15:28.877Z,1.80
2022-08-10T15:17:58.333Z,1.60
2022-08-10T15:20:29.458Z,1.80
2022-08-10T15:23:08.124Z,1.60
2022-08-10T15:25:58.295Z,1.60
2022-08-10T15:28:33.276Z,1.63
2022-08-10T15:31:21.392Z,1.77
2022-08-10T15:34:11.471Z,1.80
2022-08-10T15:37:47.057Z,1.80
2022-08-10T15:40:24.760Z,1.75
2022-08-10T15:42:49.216Z,1.73
2022-08-10T15:45:18.054Z,1.90
2022-08-10T15:47:52.737Z,1.73
2022-08-10T15:50:40.618Z,3.05
2022-08-10T15:53:15.976Z,2.45
2022-08-10T15:55:51.521Z,2.65
2022-08-10T15:58:37.462Z,2.20
2022-08-10T16:02:15.063Z,1.70
2022-08-10T16:04:19.714Z,1.75
2022-08-10T16:06:57.115Z,1.73
2022-08-10T16:10:22.305Z,2.00
2022-08-10T16:12:30.145Z,4.32
2022-08-10T16:15:00.615Z,2.20
2022-08-10T16:17:28.118Z,1.80
2022-08-10T16:19:57.627Z,1.70
2022-08-10T16:22:34.468Z,1.50
2022-08-10T16:25:11.927Z,1.70
2022-08-10T16:27:40.535Z,1.75
2022-08-10T16:30:07.547Z,2.03
2022-08-10T16:32:35.774Z,1.80
2022-08-10T16:35:09.181Z,1.50
2022-08-10T16:37:58.702Z,1.75
2022-08-10T16:40:28.907Z,1.50
2022-08-10T16:42:57.347Z,1.85
2022-08-10T16:45:31.683Z,1.83
2022-08-10T16:47:59.409Z,1.67
2022-08-10T16:50:37.559Z,1.70
2022-08-10T16:53:06.910Z,1.70
2022-08-10T16:55:49.560Z,1.77
2022-08-10T17:00:49.939Z,1.80
2022-08-10T17:04:06.114Z,1.80
2022-08-10T17:06:17.254Z,1.80
2022-08-10T17:08:48.519Z,1.80
2022-08-10T17:11:17.757Z,2.10
2022-08-10T17:13:44.758Z,2.00
2022-08-10T17:16:18.167Z,2.00
2022-08-10T17:18:49.035Z,1.80
2022-08-10T17:21:22.410Z,1.77
2022-08-10T17:23:56.042Z,1.75
2022-08-10T17:26:35.539Z,1.90
2022-08-10T17:29:57.254Z,1.85
2022-08-10T17:32:44.772Z,1.70
2022-08-10T17:35:22.518Z,1.90
2022-08-10T17:38:11.143Z,1.75
2022-08-10T17:40:47.299Z,1.80
2022-08-10T17:43:46.541Z,1.80
2022-08-10T17:46:08.858Z,1.93
2022-08-10T17:48:36.847Z,1.80
2022-08-10T17:51:09.224Z,1.70
2022-08-10T17:53:43.031Z,3.08
2022-08-10T17:56:10.883Z,3.03
2022-08-10T17:58:40.106Z,2.20
2022-08-10T18:01:38.779Z,2.10
2022-08-10T18:04:02.184Z,2.30
2022-08-10T18:06:30.378Z,2.45
2022-08-10T18:09:00.758Z,2.00
2022-08-10T18:11:31.046Z,1.80
2022-08-10T18:14:02.319Z,2.00
2022-08-10T18:16:31.861Z,2.08
2022-08-10T18:19:19.110Z,2.03
2022-08-10T18:21:48.908Z,2.20
2022-08-10T18:24:18.291Z,1.90
2022-08-10T18:26:47.834Z,1.90
2022-08-10T18:29:20.775Z,1.90
2022-08-10T18:31:49.438Z,1.90
2022-08-10T18:34:20.745Z,1.95
2022-08-10T18:36:49.617Z,2.00
2022-08-10T18:39:21.838Z,2.03
2022-08-10T18:42:00.213Z,1.90
2022-08-10T18:44:36.249Z,2.22
2022-08-10T18:47:08.582Z,2.10
2022-08-10T18:49:57.940Z,2.40
2022-08-10T18:52:27.751Z,2.10
2022-08-10T18:55:02.294Z,2.20
2022-08-10T18:57:45.937Z,2.10
2022-08-10T19:00:15.221Z,2.10
2022-08-10T19:02:54.178Z,1.95
2022-08-10T19:05:30.719Z,2.00
2022-08-10T19:08:29.951Z,2.20
2022-08-10T19:11:44.599Z,2.20
2022-08-10T19:14:25.152Z,2.00
2022-08-10T19:17:05.195Z,2.00
2022-08-10T19:19:46.410Z,1.92
2022-08-10T19:22:43.163Z,2.10
2022-08-10T19:26:42.281Z,2.05
2022-08-10T19:28:30.467Z,2.10
2022-08-10T19:31:10.004Z,2.20
2022-08-10T19:33:52.508Z,2.25
2022-08-10T19:36:51.511Z,2.00
2022-08-10T19:39:29.212Z,2.13
2022-08-10T19:42:19.800Z,2.40
2022-08-10T19:46:02.065Z,2.00
2022-08-10T19:48:29.839Z,2.25
2022-08-10T19:51:19.978Z,2.33
2022-08-10T19:54:03.620Z,2.25
2022-08-10T19:57:00.927Z,2.35
2022-08-10T20:00:18.694Z,2.10
2022-08-10T20:02:20.877Z,2.10
2022-08-10T20:05:12.107Z,2.22
2022-08-10T20:08:14.447Z,2.20
2022-08-10T20:10:49.680Z,2.10
2022-08-10T20:13:42.807Z,2.22
2022-08-10T20:16:18.568Z,2.25
2022-08-10T20:18:53.436Z,2.00
2022-08-10T20:21:25.711Z,2.30
2022-08-10T20:24:05.601Z,2.20
2022-08-10T20:26:38.828Z,2.40
2022-08-10T20:31:56.637Z,2.47
2022-08-10T20:34:27.561Z,2.30
2022-08-10T20:37:08.305Z,2.33
2022-08-10T20:39:49.788Z,2.22
2022-08-10T20:42:31.232Z,2.25
2022-08-10T20:44:57.779Z,2.08
2022-08-10T20:47:53.702Z,2.30
2022-08-10T20:50:33.623Z,2.50
2022-08-10T20:53:05.387Z,2.30
2022-08-10T20:55:54.680Z,2.40
2022-08-10T20:58:37.771Z,2.58
2022-08-10T21:01:16.915Z,2.50
2022-08-10T21:04:05.701Z,2.40
2022-08-10T21:07:28.293Z,2.60
2022-08-10T21:10:27.698Z,2.60
2022-08-10T21:13:17.260Z,2.42
2022-08-10T21:15:43.826Z,2.70
2022-08-10T21:18:36.322Z,2.38
2022-08-10T21:24:40.935Z,2.60
2022-08-10T21:25:42.050Z,2.60
2022-08-10T21:27:14.609Z,2.50
2022-08-10T21:30:00.520Z,2.50
2022-08-10T21:32:43.840Z,2.67
2022-08-10T21:35:42.408Z,2.63
2022-08-10T21:38:46.499Z,2.67
2022-08-10T21:45:14.100Z,2.60
2022-08-10T21:48:20.592Z,2.80
2022-08-10T21:51:24.365Z,2.70
2022-08-10T21:54:22.824Z,3.00
2022-08-10T21:57:25.154Z,2.80
2022-08-10T22:00:18.437Z,2.92
2022-08-10T22:03:08.066Z,3.10
2022-08-10T22:05:56.378Z,2.80
2022-08-10T22:08:50.367Z,3.00
2022-08-10T22:11:38.198Z,3.05
2022-08-10T22:14:26.313Z,3.58
2022-08-10T22:17:22.834Z,2.88
2022-08-10T22:20:37.428Z,3.03
2022-08-10T22:23:27.350Z,3.28
2022-08-10T22:29:56.487Z,3.00
2022-08-10T22:31:26.142Z,3.10
2022-08-10T22:33:04.869Z,3.03
2022-08-10T22:35:56.301Z,3.10
2022-08-10T22:38:56.238Z,3.10
2022-08-10T22:42:00.923Z,3.08
2022-08-10T22:44:48.241Z,2.95
2022-08-10T22:47:37.811Z,2.78
2022-08-10T22:50:07.694Z,3.00
2022-08-10T22:52:57.244Z,3.58
2022-08-10T22:55:51.881Z,2.92
2022-08-10T22:58:37.619Z,3.05
2022-08-10T23:02:08.930Z,3.03
2022-08-10T23:04:44.974Z,2.95
2022-08-10T23:07:22.556Z,2.90
2022-08-10T23:09:57.717Z,3.15
2022-08-10T23:12:30.399Z,3.28
2022-08-10T23:15:18.098Z,2.97
2022-08-10T23:18:11.468Z,3.00
2022-08-10T23:20:40.304Z,3.50
2022-08-10T23:23:10.275Z,3.20
2022-08-10T23:25:57.217Z,3.20
2022-08-10T23:28:39.096Z,3.10
2022-08-10T23:31:14.572Z,3.13
2022-08-10T23:33:42.511Z,3.00
2022-08-10T23:36:34.117Z,3.28
2022-08-10T23:39:26.727Z,3.10
2022-08-10T23:42:06.341Z,3.03
2022-08-10T23:44:55.567Z,3.28
2022-08-10T23:47:24.818Z,3.25
2022-08-10T23:50:00.741Z,3.00
2022-08-10T23:52:34.710Z,3.03
2022-08-10T23:55:05.607Z,3.17
2022-08-10T23:57:36.092Z,3.20
